createdAt,value
2023-02-05T00:00:37.087Z,102111.50
2023-02-05T00:03:29.517Z,102106.75
2023-02-05T00:06:02.052Z,102110.05
2023-02-05T00:08:35.447Z,102108.41
2023-02-05T00:11:09.782Z,102116.48
2023-02-05T00:13:45.005Z,102113.33
2023-02-05T00:16:19.918Z,102117.75
2023-02-05T00:18:52.729Z,102116.34
2023-02-05T00:21:25.967Z,102121.65
2023-02-05T00:23:58.372Z,102120.42
2023-02-05T00:26:30.967Z,102120.91
2023-02-05T00:29:03.478Z,102122.20
2023-02-05T00:31:36.175Z,102121.32
2023-02-05T00:34:08.828Z,102124.66
2023-02-05T00:36:41.405Z,102125.30
2023-02-05T00:39:14.831Z,102125.52
2023-02-05T00:41:47.354Z,102123.59
2023-02-05T00:44:19.804Z,102122.75
2023-02-05T00:46:52.283Z,102126.66
2023-02-05T00:49:24.701Z,102126.79
2023-02-05T00:51:57.172Z,102127.20
2023-02-05T00:54:29.681Z,102129.02
2023-02-05T00:57:02.105Z,102130.41
2023-02-05T00:59:34.671Z,102134.33
2023-02-05T01:02:07.286Z,102140.91
2023-02-05T01:04:40.121Z,102146.71
2023-02-05T01:07:12.621Z,102147.89
2023-02-05T01:09:45.970Z,102155.85
2023-02-05T01:12:18.497Z,102151.27
2023-02-05T01:14:51.179Z,102149.16
2023-02-05T01:17:24.150Z,102147.66
2023-02-05T01:19:57.030Z,102148.45
2023-02-05T01:22:29.807Z,102148.91
2023-02-05T01:25:03.035Z,102149.76
2023-02-05T01:27:36.689Z,102151.67
2023-02-05T01:30:11.914Z,102152.03
2023-02-05T01:32:42.839Z,102153.61
2023-02-05T01:35:15.343Z,102154.14
2023-02-05T01:37:48.018Z,102151.16
2023-02-05T01:40:20.722Z,102151.09
2023-02-05T01:42:53.276Z,102159.70
2023-02-05T01:46:08.185Z,102160.99
2023-02-05T01:48:45.313Z,102162.48
2023-02-05T01:51:18.490Z,102152.95
2023-02-05T01:53:51.712Z,102150.89
2023-02-05T01:56:27.537Z,102154.25
2023-02-05T01:59:04.728Z,102156.93
2023-02-05T02:01:38.808Z,102161.16
2023-02-05T02:04:12.749Z,102158.55
2023-02-05T02:06:45.398Z,102159.27
2023-02-05T02:09:17.872Z,102157.66
2023-02-05T02:11:50.579Z,102151.77
2023-02-05T02:14:24.873Z,102146.82
2023-02-05T02:16:58.476Z,102149.68
2023-02-05T02:19:40.064Z,102148.80
2023-02-05T02:22:44.361Z,102146.44
2023-02-05T02:25:46.048Z,102148.38
2023-02-05T02:28:26.381Z,102142.54
2023-02-05T02:31:04.099Z,102145.27
2023-02-05T02:33:43.955Z,102156.02
2023-02-05T02:36:22.854Z,102158.02
2023-02-05T02:39:01.545Z,102162.23
2023-02-05T02:41:41.810Z,102165.14
2023-02-05T02:44:18.487Z,102164.32
2023-02-05T02:46:55.098Z,102167.20
2023-02-05T02:49:34.218Z,102168.02
2023-02-05T02:52:10.352Z,102168.81
2023-02-05T02:54:47.955Z,102170.35
2023-02-05T02:57:24.275Z,102169.45
2023-02-05T03:00:01.566Z,102168.16
2023-02-05T03:02:37.736Z,102162.28
2023-02-05T03:05:15.158Z,102163.00
2023-02-05T03:07:50.990Z,102160.02
2023-02-05T03:10:33.500Z,102163.41
2023-02-05T03:13:06.051Z,102161.45
2023-02-05T03:15:39.551Z,102163.98
2023-02-05T03:18:12.157Z,102168.86
2023-02-05T03:20:49.906Z,102162.80
2023-02-05T03:23:22.531Z,102158.59
2023-02-05T03:25:55.521Z,102161.13
2023-02-05T03:28:33.754Z,102158.36
2023-02-05T03:31:11.980Z,102148.80
2023-02-05T03:33:54.843Z,102147.70
2023-02-05T03:36:40.748Z,102152.44
2023-02-05T03:39:26.720Z,102144.73
2023-02-05T03:42:11.720Z,102149.38
2023-02-05T03:45:16.313Z,102154.64
2023-02-05T03:48:02.462Z,102158.06
2023-02-05T03:50:42.442Z,102161.23
2023-02-05T03:53:23.219Z,102165.36
2023-02-05T03:56:04.759Z,102163.93
2023-02-05T03:58:43.159Z,102160.83
2023-02-05T04:01:16.246Z,102160.71
2023-02-05T04:03:49.895Z,102162.55
2023-02-05T04:06:22.513Z,102160.24
2023-02-05T04:08:55.919Z,102164.55
2023-02-05T04:11:29.496Z,102166.95
2023-02-05T04:14:02.278Z,102170.38
2023-02-05T04:16:34.778Z,102173.55
2023-02-05T04:19:08.282Z,102165.40
2023-02-05T04:21:40.911Z,102166.38
2023-02-05T04:24:13.459Z,102171.52
2023-02-05T04:26:46.575Z,102175.86
2023-02-05T04:29:19.282Z,102171.94
2023-02-05T04:31:52.707Z,102174.26
2023-02-05T04:34:25.489Z,102171.76
2023-02-05T04:36:58.254Z,102170.70
2023-02-05T04:39:31.827Z,102171.29
2023-02-05T04:42:04.362Z,102170.55
2023-02-05T04:44:36.800Z,102170.13
2023-02-05T04:47:09.430Z,102171.65
2023-02-05T04:49:42.059Z,102169.04
2023-02-05T04:52:14.467Z,102173.20
2023-02-05T04:54:46.936Z,102170.89
2023-02-05T04:57:19.336Z,102169.04
2023-02-05T04:59:51.860Z,102165.97
2023-02-05T05:02:24.675Z,102167.33
2023-02-05T05:04:57.195Z,102164.44
2023-02-05T05:07:32.537Z,102164.68
2023-02-05T05:10:07.337Z,102165.82
2023-02-05T05:12:40.282Z,102167.27
2023-02-05T05:15:13.235Z,102161.80
2023-02-05T05:17:45.716Z,102157.36
2023-02-05T05:20:18.677Z,102160.14
2023-02-05T05:22:51.208Z,102157.62
2023-02-05T05:25:23.986Z,102158.48
2023-02-05T05:27:56.535Z,102158.85
2023-02-05T05:30:29.093Z,102153.95
2023-02-05T05:33:01.596Z,102155.75
2023-02-05T05:35:34.981Z,102151.60
2023-02-05T05:38:08.299Z,102156.14
2023-02-05T05:40:58.408Z,102159.40
2023-02-05T05:43:49.625Z,102157.63
2023-02-05T05:46:24.633Z,102158.72
2023-02-05T05:48:58.613Z,102156.67
2023-02-05T05:51:32.781Z,102162.68
2023-02-05T05:54:05.408Z,102163.08
2023-02-05T05:56:38.415Z,102166.41
2023-02-05T05:59:12.502Z,102168.98
2023-02-05T06:01:44.927Z,102174.22
2023-02-05T06:04:17.408Z,102174.20
2023-02-05T06:06:49.811Z,102172.65
2023-02-05T06:09:24.116Z,102170.53
2023-02-05T06:11:56.528Z,102176.89
2023-02-05T06:14:29.047Z,102182.02
2023-02-05T06:17:01.559Z,102180.79
2023-02-05T06:19:34.340Z,102186.54
2023-02-05T06:22:06.857Z,102190.28
2023-02-05T06:24:39.302Z,102192.25
2023-02-05T06:27:11.852Z,102195.52
2023-02-05T06:29:44.330Z,102203.20
2023-02-05T06:32:16.882Z,102200.36
2023-02-05T06:34:49.306Z,102209.27
2023-02-05T06:37:24.959Z,102220.25
2023-02-05T06:39:57.482Z,102223.66
2023-02-05T06:42:29.883Z,102228.02
2023-02-05T06:45:02.432Z,102229.11
2023-02-05T06:47:34.782Z,102231.48
2023-02-05T06:50:08.220Z,102229.84
2023-02-05T06:52:40.756Z,102229.52
2023-02-05T06:55:13.465Z,102233.95
2023-02-05T06:57:46.046Z,102237.39
2023-02-05T07:00:19.541Z,102242.45
2023-02-05T07:02:53.308Z,102249.86
2023-02-05T07:05:25.952Z,102256.06
2023-02-05T07:07:58.456Z,102251.02
2023-02-05T07:10:30.968Z,102253.20
2023-02-05T07:13:05.739Z,102258.02
2023-02-05T07:15:39.660Z,102261.38
2023-02-05T07:18:12.125Z,102263.36
2023-02-05T07:20:44.574Z,102267.98
2023-02-05T07:23:16.978Z,102272.02
2023-02-05T07:25:49.523Z,102276.32
2023-02-05T07:28:22.026Z,102278.15
2023-02-05T07:30:55.596Z,102268.19
2023-02-05T07:33:28.010Z,102268.67
2023-02-05T07:36:03.162Z,102269.70
2023-02-05T07:38:34.748Z,102268.52
2023-02-05T07:41:08.391Z,102263.66
2023-02-05T07:43:41.458Z,102264.40
2023-02-05T07:46:15.687Z,102265.65
2023-02-05T07:48:48.082Z,102268.80
2023-02-05T07:51:24.616Z,102271.26
2023-02-05T07:53:57.037Z,102276.00
2023-02-05T07:56:29.410Z,102276.52
2023-02-05T07:59:01.900Z,102274.88
2023-02-05T08:01:34.360Z,102279.83
2023-02-05T08:04:06.999Z,102280.40
2023-02-05T08:06:39.566Z,102281.08
2023-02-05T08:09:14.453Z,102283.85
2023-02-05T08:11:46.952Z,102288.04
2023-02-05T08:14:19.349Z,102294.09
2023-02-05T08:16:51.775Z,102294.41
2023-02-05T08:19:24.207Z,102297.23
2023-02-05T08:21:56.646Z,102298.88
2023-02-05T08:24:29.208Z,102303.86
2023-02-05T08:27:01.777Z,102302.70
2023-02-05T08:29:34.154Z,102308.94
2023-02-05T08:32:08.661Z,102309.94
2023-02-05T08:34:41.099Z,102312.98
2023-02-05T08:37:13.859Z,102318.35
2023-02-05T08:39:46.537Z,102325.65
2023-02-05T08:42:19.120Z,102334.55
2023-02-05T08:44:51.794Z,102341.58
2023-02-05T08:47:25.124Z,102345.79
2023-02-05T08:49:57.898Z,102346.89
2023-02-05T08:52:30.424Z,102343.28
2023-02-05T08:55:02.978Z,102344.60
2023-02-05T08:57:35.456Z,102351.89
2023-02-05T09:00:09.566Z,102348.48
2023-02-05T09:02:44.140Z,102344.52
2023-02-05T09:05:16.627Z,102344.20
2023-02-05T09:07:49.064Z,102345.04
2023-02-05T09:10:21.628Z,102346.67
2023-02-05T09:12:54.118Z,102344.00
2023-02-05T09:15:26.726Z,102343.64
2023-02-05T09:17:59.176Z,102342.46
2023-02-05T09:20:31.625Z,102346.27
2023-02-05T09:23:04.309Z,102346.08
2023-02-05T09:25:37.783Z,102344.75
2023-02-05T09:28:11.733Z,102341.09
2023-02-05T09:30:46.872Z,102345.39
2023-02-05T09:33:17.767Z,102347.88
2023-02-05T09:35:50.199Z,102360.90
2023-02-05T09:38:22.665Z,102362.11
2023-02-05T09:40:59.927Z,102361.23
2023-02-05T09:43:45.308Z,102357.08
2023-02-05T09:46:25.812Z,102355.83
2023-02-05T09:49:03.216Z,102345.90
2023-02-05T09:51:38.819Z,102343.25
2023-02-05T09:54:17.839Z,102341.94
2023-02-05T09:56:52.629Z,102337.94
2023-02-05T09:59:27.577Z,102333.06
2023-02-05T10:02:02.970Z,102331.75
2023-02-05T10:04:36.850Z,102337.49
2023-02-05T10:07:31.551Z,102333.48
2023-02-05T10:10:22.749Z,102331.87
2023-02-05T10:13:23.705Z,102333.56
2023-02-05T10:16:31.150Z,102322.98
2023-02-05T10:19:48.480Z,102318.68
2023-02-05T10:22:27.939Z,102324.11
2023-02-05T10:25:16.929Z,102325.86
2023-02-05T10:27:59.372Z,102326.00
2023-02-05T10:30:38.383Z,102324.73
2023-02-05T10:33:20.220Z,102319.70
2023-02-05T10:36:01.525Z,102316.80
2023-02-05T10:38:37.942Z,102309.95
2023-02-05T10:41:27.670Z,102307.77
2023-02-05T10:44:06.109Z,102307.38
2023-02-05T10:46:41.306Z,102297.89
2023-02-05T10:49:16.874Z,102292.00
2023-02-05T10:51:50.124Z,102293.63
2023-02-05T10:54:28.033Z,102290.91
2023-02-05T10:57:01.954Z,102289.91
2023-02-05T10:59:37.586Z,102292.88
2023-02-05T11:02:12.409Z,102294.27
2023-02-05T11:04:48.608Z,102292.86
2023-02-05T11:07:26.217Z,102287.34
2023-02-05T11:10:14.024Z,102280.41
2023-02-05T11:12:49.729Z,102273.81
2023-02-05T11:15:25.460Z,102273.20
2023-02-05T11:18:02.719Z,102272.84
2023-02-05T11:20:38.402Z,102272.30
2023-02-05T11:23:19.314Z,102274.55
2023-02-05T11:25:56.822Z,102268.21
2023-02-05T11:28:33.030Z,102269.20
2023-02-05T11:31:25.523Z,102269.40
2023-02-05T11:34:16.272Z,102266.27
2023-02-05T11:36:54.922Z,102270.98
2023-02-05T11:39:36.548Z,102269.75
2023-02-05T11:42:19.353Z,102269.78
2023-02-05T11:44:54.793Z,102265.52
2023-02-05T11:47:32.472Z,102262.73
2023-02-05T11:50:06.567Z,102269.50
2023-02-05T11:52:40.527Z,102270.27
2023-02-05T11:55:29.144Z,102266.76
2023-02-05T11:58:07.412Z,102269.40
2023-02-05T12:00:51.135Z,102268.13
2023-02-05T12:03:24.467Z,102264.93
2023-02-05T12:06:04.594Z,102259.44
2023-02-05T12:08:44.268Z,102262.39
2023-02-05T12:11:31.230Z,102255.43
2023-02-05T12:14:12.535Z,102255.17
2023-02-05T12:16:52.657Z,102253.25
2023-02-05T12:19:33.294Z,102250.36
2023-02-05T12:22:17.875Z,102246.48
2023-02-05T12:24:59.767Z,102239.35
2023-02-05T12:27:49.595Z,102233.07
2023-02-05T12:30:39.800Z,102228.29
2023-02-05T12:33:28.429Z,102224.54
2023-02-05T12:36:11.940Z,102227.29
2023-02-05T12:38:58.681Z,102222.89
2023-02-05T12:41:42.600Z,102220.51
2023-02-05T12:44:27.600Z,102222.51
2023-02-05T12:47:14.366Z,102225.88
2023-02-05T12:50:12.206Z,102228.71
2023-02-05T12:53:12.610Z,102224.61
2023-02-05T12:56:00.288Z,102225.59
2023-02-05T12:58:41.007Z,102227.25
2023-02-05T13:01:21.165Z,102229.04
2023-02-05T13:04:00.864Z,102230.15
2023-02-05T13:06:38.048Z,102230.02
2023-02-05T13:09:17.716Z,102233.90
2023-02-05T13:11:57.334Z,102231.64
2023-02-05T13:14:35.672Z,102236.70
2023-02-05T13:17:13.346Z,102236.65
2023-02-05T13:19:50.968Z,102237.58
2023-02-05T13:22:45.171Z,102229.86
2023-02-05T13:25:44.160Z,102232.13
2023-02-05T13:28:43.866Z,102227.56
2023-02-05T13:31:25.733Z,102225.75
2023-02-05T13:34:04.693Z,102229.39
2023-02-05T13:37:13.052Z,102227.54
2023-02-05T13:40:05.373Z,102227.05
2023-02-05T13:43:02.425Z,102230.65
2023-02-05T13:46:06.234Z,102234.52
2023-02-05T13:49:22.554Z,102240.13
2023-02-05T13:52:18.797Z,102237.81
2023-02-05T13:55:16.902Z,102236.91
2023-02-05T13:58:12.311Z,102238.02
2023-02-05T14:00:50.867Z,102232.14
2023-02-05T14:03:35.303Z,102232.06
2023-02-05T14:06:23.032Z,102232.55
2023-02-05T14:09:05.652Z,102236.92
2023-02-05T14:11:53.982Z,102236.68
2023-02-05T14:14:30.140Z,102240.29
2023-02-05T14:17:04.378Z,102242.45
2023-02-05T14:20:01.276Z,102237.34
2023-02-05T14:22:40.210Z,102239.23
2023-02-05T14:26:02.170Z,102242.67
2023-02-05T14:28:52.769Z,102248.36
2023-02-05T14:31:48.644Z,102248.16
2023-02-05T14:34:51.376Z,102245.48
2023-02-05T14:37:31.304Z,102241.90
2023-02-05T14:40:22.215Z,102242.33
2023-02-05T14:43:09.690Z,102240.25
2023-02-05T14:45:49.235Z,102238.81
2023-02-05T14:48:26.870Z,102241.11
2023-02-05T14:51:18.502Z,102243.52
2023-02-05T14:54:00.930Z,102243.08
2023-02-05T14:56:40.211Z,102249.11
2023-02-05T14:59:24.752Z,102249.48
2023-02-05T15:01:57.557Z,102248.91
2023-02-05T15:04:41.938Z,102248.42
2023-02-05T15:07:21.113Z,102252.48
2023-02-05T15:09:58.957Z,102260.28
2023-02-05T15:12:49.320Z,102259.59
2023-02-05T15:15:33.703Z,102258.48
2023-02-05T15:18:16.327Z,102264.06
2023-02-05T15:20:52.852Z,102265.63
2023-02-05T15:23:35.156Z,102264.47
2023-02-05T15:26:16.030Z,102270.70
2023-02-05T15:28:57.363Z,102269.48
2023-02-05T15:31:35.846Z,102274.14
2023-02-05T15:34:30.661Z,102277.50
2023-02-05T15:37:06.842Z,102276.52
2023-02-05T15:39:48.768Z,102276.23
2023-02-05T15:42:25.336Z,102279.60
2023-02-05T15:44:57.765Z,102285.50
2023-02-05T15:47:30.561Z,102289.52
2023-02-05T15:50:05.463Z,102294.86
2023-02-05T15:52:38.697Z,102289.58
2023-02-05T15:55:17.778Z,102289.46
2023-02-05T15:57:50.699Z,102289.64
2023-02-05T16:00:27.346Z,102288.56
2023-02-05T16:03:02.591Z,102293.82
2023-02-05T16:05:36.593Z,102295.97
2023-02-05T16:08:28.202Z,102302.09
2023-02-05T16:11:05.471Z,102303.15
2023-02-05T16:13:37.927Z,102306.27
2023-02-05T16:16:18.418Z,102306.02
2023-02-05T16:18:57.443Z,102307.15
2023-02-05T16:21:34.043Z,102308.88
2023-02-05T16:24:10.723Z,102311.05
2023-02-05T16:26:47.806Z,102314.51
2023-02-05T16:29:31.510Z,102315.66
2023-02-05T16:32:15.654Z,102319.06
2023-02-05T16:34:48.616Z,102317.40
2023-02-05T16:37:23.884Z,102319.29
2023-02-05T16:39:56.062Z,102320.86
2023-02-05T16:42:38.224Z,102320.45
2023-02-05T16:45:31.658Z,102320.61
2023-02-05T16:48:26.361Z,102321.59
2023-02-05T16:50:59.989Z,102326.08
2023-02-05T16:53:35.103Z,102327.45
2023-02-05T16:56:12.652Z,102329.20
2023-02-05T16:58:50.703Z,102336.08
2023-02-05T17:01:29.066Z,102337.36
2023-02-05T17:04:01.748Z,102337.52
2023-02-05T17:06:38.244Z,102335.41
2023-02-05T17:09:30.561Z,102337.90
2023-02-05T17:12:33.888Z,102335.42
2023-02-05T17:15:27.560Z,102338.42
2023-02-05T17:18:06.489Z,102342.43
2023-02-05T17:20:40.701Z,102346.39
2023-02-05T17:23:14.727Z,102345.96
2023-02-05T17:25:55.221Z,102340.26
2023-02-05T17:28:29.984Z,102332.83
2023-02-05T17:31:02.495Z,102335.15
2023-02-05T17:33:35.104Z,102332.20
2023-02-05T17:36:09.957Z,102330.18
2023-02-05T17:38:42.317Z,102331.13
2023-02-05T17:41:36.579Z,102331.31
2023-02-05T17:44:11.405Z,102329.00
2023-02-05T17:46:44.394Z,102319.85
2023-02-05T17:49:16.953Z,102317.48
2023-02-05T17:51:49.453Z,102315.63
2023-02-05T17:54:25.562Z,102317.14
2023-02-05T17:57:03.039Z,102313.61
2023-02-05T17:59:35.663Z,102311.23
2023-02-05T18:02:08.397Z,102306.88
2023-02-05T18:04:41.312Z,102305.01
2023-02-05T18:07:21.668Z,102306.19
2023-02-05T18:09:54.112Z,102314.69
2023-02-05T18:12:27.047Z,102315.69
2023-02-05T18:14:59.601Z,102311.34
2023-02-05T18:17:32.046Z,102314.88
2023-02-05T18:20:05.092Z,102321.77
2023-02-05T18:22:37.960Z,102320.48
2023-02-05T18:25:11.272Z,102321.71
2023-02-05T18:27:43.808Z,102329.02
2023-02-05T18:30:17.285Z,102332.13
2023-02-05T18:32:50.034Z,102325.77
2023-02-05T18:35:22.586Z,102319.83
2023-02-05T18:37:55.136Z,102314.88
2023-02-05T18:40:27.582Z,102313.19
2023-02-05T18:43:00.545Z,102315.46
2023-02-05T18:45:32.962Z,102319.54
2023-02-05T18:48:05.416Z,102329.11
2023-02-05T18:50:37.939Z,102327.17
2023-02-05T18:53:10.466Z,102329.54
2023-02-05T18:55:42.913Z,102328.05
2023-02-05T18:58:15.436Z,102334.39
2023-02-05T19:00:47.815Z,102343.14
2023-02-05T19:03:20.327Z,102342.02
2023-02-05T19:05:53.303Z,102345.93
2023-02-05T19:08:26.059Z,102352.77
2023-02-05T19:10:58.893Z,102358.57
2023-02-05T19:13:31.498Z,102355.16
2023-02-05T19:16:11.593Z,102362.42
2023-02-05T19:18:45.709Z,102373.16
2023-02-05T19:21:20.465Z,102378.41
2023-02-05T19:23:55.893Z,102376.98
2023-02-05T19:26:30.105Z,102382.83
2023-02-05T19:29:05.187Z,102380.17
2023-02-05T19:31:39.977Z,102375.66
2023-02-05T19:34:12.979Z,102381.21
2023-02-05T19:36:45.846Z,102379.59
2023-02-05T19:39:18.544Z,102375.60
2023-02-05T19:41:51.989Z,102376.64
2023-02-05T19:44:26.574Z,102381.60
2023-02-05T19:46:58.900Z,102386.92
2023-02-05T19:49:31.481Z,102384.23
2023-02-05T19:52:04.257Z,102384.40
2023-02-05T19:54:36.858Z,102383.36
2023-02-05T19:57:09.538Z,102377.42
2023-02-05T19:59:41.932Z,102376.89
2023-02-05T20:02:19.358Z,102382.70
2023-02-05T20:04:52.393Z,102378.48
2023-02-05T20:07:24.818Z,102379.75
2023-02-05T20:09:57.375Z,102389.83
2023-02-05T20:12:30.019Z,102398.04
2023-02-05T20:15:02.809Z,102393.44
2023-02-05T20:17:35.386Z,102395.65
2023-02-05T20:20:22.216Z,102397.71
2023-02-05T20:23:01.031Z,102399.52
2023-02-05T20:25:33.698Z,102396.16
2023-02-05T20:28:06.782Z,102395.84
2023-02-05T20:31:00.238Z,102404.17
2023-02-05T20:33:32.963Z,102405.24
2023-02-05T20:36:11.290Z,102405.44
2023-02-05T20:38:43.953Z,102406.36
2023-02-05T20:41:18.548Z,102403.09
2023-02-05T20:43:51.814Z,102399.42
2023-02-05T20:46:24.958Z,102393.23
2023-02-05T20:48:57.412Z,102402.84
2023-02-05T20:51:30.510Z,102398.45
2023-02-05T20:54:03.233Z,102390.29
2023-02-05T20:56:36.073Z,102397.67
2023-02-05T20:59:10.976Z,102403.40
2023-02-05T21:01:43.488Z,102397.27
2023-02-05T21:04:16.184Z,102394.48
2023-02-05T21:06:49.580Z,102402.38
2023-02-05T21:09:22.748Z,102399.25
2023-02-05T21:11:55.739Z,102388.34
2023-02-05T21:14:28.497Z,102388.65
2023-02-05T21:17:02.757Z,102393.23
2023-02-05T21:19:35.413Z,102398.52
2023-02-05T21:22:07.968Z,102396.17
2023-02-05T21:24:41.421Z,102399.89
2023-02-05T21:27:13.849Z,102402.88
2023-02-05T21:29:46.431Z,102399.34
2023-02-05T21:32:19.541Z,102400.23
2023-02-05T21:34:52.365Z,102396.48
2023-02-05T21:37:25.055Z,102393.75
2023-02-05T21:40:08.368Z,102392.02
2023-02-05T21:42:41.823Z,102400.70
2023-02-05T21:45:14.554Z,102408.90
2023-02-05T21:47:47.029Z,102419.61
2023-02-05T21:50:20.054Z,102430.02
2023-02-05T21:52:55.087Z,102433.02
2023-02-05T21:55:27.580Z,102439.09
2023-02-05T21:58:00.162Z,102434.40
2023-02-05T22:00:32.828Z,102428.31
2023-02-05T22:03:05.653Z,102428.89
2023-02-05T22:05:38.432Z,102437.38
2023-02-05T22:08:12.040Z,102434.91
2023-02-05T22:10:44.613Z,102434.03
2023-02-05T22:13:17.397Z,102436.35
2023-02-05T22:15:50.102Z,102439.56
2023-02-05T22:18:22.678Z,102447.86
2023-02-05T22:20:55.132Z,102447.92
2023-02-05T22:23:27.637Z,102442.06
2023-02-05T22:26:00.440Z,102437.90
2023-02-05T22:28:33.349Z,102442.34
2023-02-05T22:31:07.736Z,102441.56
2023-02-05T22:33:41.806Z,102431.70
2023-02-05T22:36:16.872Z,102429.22
2023-02-05T22:38:48.014Z,102426.70
2023-02-05T22:41:23.226Z,102424.27
2023-02-05T22:43:54.676Z,102425.41
2023-02-05T22:46:29.405Z,102426.23
2023-02-05T22:49:03.441Z,102432.75
2023-02-05T22:51:38.016Z,102428.86
2023-02-05T22:54:13.610Z,102420.05
2023-02-05T22:56:46.578Z,102418.43
2023-02-05T22:59:19.209Z,102416.30
2023-02-05T23:01:51.884Z,102424.44
2023-02-05T23:04:24.897Z,102426.38
2023-02-05T23:06:57.546Z,102430.42
2023-02-05T23:09:30.060Z,102431.33
2023-02-05T23:12:03.356Z,102435.52
2023-02-05T23:14:36.333Z,102447.23
2023-02-05T23:17:08.928Z,102460.58
2023-02-05T23:19:41.299Z,102457.61
2023-02-05T23:22:13.836Z,102455.21
2023-02-05T23:24:47.231Z,102452.89
2023-02-05T23:27:19.811Z,102451.09
2023-02-05T23:29:52.473Z,102449.24
2023-02-05T23:32:25.097Z,102444.27
2023-02-05T23:34:57.825Z,102448.05
2023-02-05T23:37:30.685Z,102444.04
2023-02-05T23:40:03.163Z,102435.67
2023-02-05T23:42:35.794Z,102428.30
2023-02-05T23:45:10.558Z,102426.36
2023-02-05T23:47:43.125Z,102427.74
2023-02-05T23:50:15.477Z,102424.33
2023-02-05T23:52:48.026Z,102422.68
2023-02-05T23:55:21.066Z,102422.85
2023-02-05T23:57:53.772Z,102427.98
